Time;durP1;ratioP1;P1;durP2;ratioP2;P2;SDS_P1;SDS_P2;PMS_P1;PMS_P2;Temp;Humidity;BMP_temperature;BMP_pressure;BME280_temperature;BME280_humidity;BME280_pressure;Samples;Min_cycle;Max_cycle;Signal;HPM_P1;HPM_P2
2023/01/04 00:01:00;;;;;;;30.85;14.68;;;;;;;9.40;100.00;102095.16;5011768;28;20052;-73
2023/01/04 00:03:25;;;;;;;29.75;15.55;;;;;;;9.40;100.00;102093.38;5011539;28;20034;-72
2023/01/04 00:05:51;;;;;;;29.48;15.55;;;;;;;9.39;100.00;102104.72;5009003;28;20026;-72
2023/01/04 00:08:17;;;;;;;30.67;15.57;;;;;;;9.37;100.00;102103.97;5014400;28;20116;-73
2023/01/04 00:10:43;;;;;;;33.60;16.83;;;;;;;9.30;100.00;102100.09;5013995;28;20176;-72
2023/01/04 00:13:08;;;;;;;30.90;16.80;;;;;;;9.27;100.00;102102.88;5013865;28;20084;-73
2023/01/04 00:15:34;;;;;;;30.88;16.73;;;;;;;9.25;100.00;102102.97;5011616;28;20042;-72
2023/01/04 00:18:00;;;;;;;33.55;16.45;;;;;;;9.25;100.00;102095.16;5012064;28;20064;-73
2023/01/04 00:20:25;;;;;;;29.92;16.00;;;;;;;9.25;100.00;102091.75;5010981;28;20065;-72
2023/01/04 00:22:51;;;;;;;31.05;16.67;;;;;;;9.24;100.00;102090.91;5010866;28;20093;-73
2023/01/04 00:25:17;;;;;;;37.13;17.73;;;;;;;9.22;100.00;102092.75;5009437;28;20064;-72
2023/01/04 00:27:43;;;;;;;27.48;16.05;;;;;;;9.23;100.00;102093.59;5012597;28;20037;-72
2023/01/04 00:30:09;;;;;;;31.70;17.35;;;;;;;9.24;100.00;102101.31;5008951;28;20045;-72
2023/01/04 00:32:35;;;;;;;29.52;16.25;;;;;;;9.25;100.00;102099.53;5011366;28;20041;-72
2023/01/04 00:35:01;;;;;;;25.52;16.02;;;;;;;9.26;100.00;102103.81;5009867;28;20045;-72
2023/01/04 00:37:27;;;;;;;25.95;15.93;;;;;;;9.26;100.00;102099.44;5016270;28;20033;-72
2023/01/04 00:39:52;;;;;;;22.83;14.20;;;;;;;9.29;100.00;102090.63;5010931;28;20080;-73
2023/01/04 00:42:18;;;;;;;26.27;14.95;;;;;;;9.32;100.00;102101.66;5009854;28;20504;-73
2023/01/04 00:44:44;;;;;;;20.65;12.77;;;;;;;9.33;100.00;102099.91;5010653;28;20034;-72
2023/01/04 00:47:09;;;;;;;23.27;13.95;;;;;;;9.35;100.00;102098.03;5013506;28;20759;-72
2023/01/04 00:49:35;;;;;;;21.67;10.82;;;;;;;9.33;100.00;102105.09;5010482;28;20195;-72
2023/01/04 00:52:01;;;;;;;18.42;11.25;;;;;;;9.33;100.00;102094.69;5010851;28;20034;-73
2023/01/04 00:54:27;;;;;;;18.08;11.43;;;;;;;9.38;100.00;102091.81;5014304;28;20095;-72
2023/01/04 00:56:53;;;;;;;15.95;10.82;;;;;;;9.38;100.00;102092.63;5014133;28;20042;-72
2023/01/04 00:59:21;;;;;;;18.05;11.38;;;;;;;9.32;100.00;102095.63;5014273;28;20131;-72
2023/01/04 01:01:47;;;;;;;20.92;11.32;;;;;;;9.31;100.00;102092.19;5010871;28;20053;-72
2023/01/04 01:04:15;;;;;;;16.67;10.70;;;;;;;9.31;100.00;102091.34;5014524;28;20053;-72
2023/01/04 01:06:41;;;;;;;18.58;11.32;;;;;;;9.31;100.00;102093.94;5009236;28;20026;-73
2023/01/04 01:09:07;;;;;;;17.13;11.52;;;;;;;9.30;100.00;102098.31;5010480;28;20030;-72
2023/01/04 01:11:35;;;;;;;17.42;11.13;;;;;;;9.28;100.00;102092.38;5004904;28;20033;-72
2023/01/04 01:14:02;;;;;;;18.45;11.85;;;;;;;9.26;100.00;102101.22;5005451;28;20056;-73
2023/01/04 01:16:27;;;;;;;19.80;11.05;;;;;;;9.20;100.00;102099.81;5011514;28;20049;-73
2023/01/04 01:18:53;;;;;;;18.98;11.30;;;;;;;9.21;100.00;102095.47;5010028;28;20093;-72
2023/01/04 01:21:22;;;;;;;20.52;10.77;;;;;;;9.21;100.00;102091.09;5012513;28;20032;-72
2023/01/04 01:23:48;;;;;;;21.75;11.73;;;;;;;9.21;100.00;102090.25;5008404;28;20030;-72
2023/01/04 01:26:18;;;;;;;15.20;10.80;;;;;;;9.19;100.00;102092.13;5012761;28;20033;-72
2023/01/04 01:28:44;;;;;;;23.38;10.98;;;;;;;9.18;100.00;102096.47;5009053;28;20038;-73
2023/01/04 01:31:16;;;;;;;19.10;11.20;;;;;;;9.18;100.00;102096.47;5010888;28;20030;-72
2023/01/04 01:33:44;;;;;;;15.35;10.15;;;;;;;9.15;100.00;102094.06;5010679;28;20469;-72
2023/01/04 01:36:13;;;;;;;16.73;9.63;;;;;;;9.19;100.00;102100.75;5008653;28;20108;-72
2023/01/04 01:38:40;;;;;;;16.95;10.18;;;;;;;9.22;100.00;102104.94;5009739;28;20038;-72
2023/01/04 01:41:07;;;;;;;17.80;9.80;;;;;;;9.20;100.00;102099.00;5009442;28;20037;-72
2023/01/04 01:44:00;;;;;;;15.30;9.93;;;;;;;9.11;100.00;102102.16;5010422;28;20485;-72
2023/01/04 01:46:39;;;;;;;17.48;9.50;;;;;;;9.04;100.00;102103.47;5008331;28;20026;-73
2023/01/04 01:49:29;;;;;;;18.75;9.25;;;;;;;8.97;100.00;102103.88;5009497;28;20096;-72
2023/01/04 01:51:58;;;;;;;16.90;10.98;;;;;;;8.94;100.00;102108.41;5016456;28;20026;-72
2023/01/04 01:54:46;;;;;;;15.77;9.68;;;;;;;8.85;100.00;102107.22;5008613;28;20030;-72
2023/01/04 01:57:17;;;;;;;20.23;11.40;;;;;;;8.82;100.00;102099.59;5011194;28;20025;-72
2023/01/04 01:59:47;;;;;;;21.33;10.90;;;;;;;8.81;100.00;102103.13;5010146;28;20521;-72
2023/01/04 02:02:12;;;;;;;22.58;12.82;;;;;;;8.77;100.00;102106.84;5013128;28;20114;-72
2023/01/04 02:04:42;;;;;;;22.85;12.55;;;;;;;8.74;100.00;102101.00;5009058;28;20113;-73
2023/01/04 02:07:09;;;;;;;20.35;12.90;;;;;;;8.72;100.00;102103.69;5010785;28;20394;-71
2023/01/04 02:09:36;;;;;;;18.85;10.63;;;;;;;8.69;100.00;102095.22;5010218;28;20037;-72
2023/01/04 02:12:02;;;;;;;20.63;12.07;;;;;;;8.64;100.00;102098.09;5011316;28;20476;-72
2023/01/04 02:14:28;;;;;;;18.67;10.50;;;;;;;8.57;100.00;102092.44;5010736;28;20345;-72
2023/01/04 02:17:06;;;;;;;23.88;11.45;;;;;;;8.50;100.00;102082.53;5008210;28;20105;-72
2023/01/04 02:19:51;;;;;;;18.60;11.27;;;;;;;8.43;100.00;102087.25;5010827;28;20460;-72
2023/01/04 02:22:44;;;;;;;18.30;11.00;;;;;;;8.46;100.00;102084.47;5009042;28;20038;-72
2023/01/04 02:25:21;;;;;;;20.13;12.23;;;;;;;8.50;100.00;102082.53;5015642;28;20510;-72
2023/01/04 02:28:24;;;;;;;19.90;10.98;;;;;;;8.49;100.00;102081.69;5009101;28;20036;-72
2023/01/04 02:31:10;;;;;;;16.75;10.02;;;;;;;8.39;100.00;102077.97;5007782;28;20038;-73
2023/01/04 02:33:47;;;;;;;27.00;11.27;;;;;;;8.30;100.00;102079.31;5008585;28;20385;-72
2023/01/04 02:36:25;;;;;;;24.00;11.32;;;;;;;8.25;100.00;102078.75;5016068;28;20540;-73
2023/01/04 02:39:13;;;;;;;19.63;10.30;;;;;;;8.20;100.00;102080.78;5017684;28;20029;-72
2023/01/04 02:41:48;;;;;;;21.15;11.35;;;;;;;8.17;100.00;102080.97;5010825;28;20030;-72
2023/01/04 02:50:29;;;;;;;23.48;11.07;;;;;;;8.17;100.00;102069.75;5012648;28;20072;-73
2023/01/04 02:53:08;;;;;;;32.10;11.15;;;;;;;8.11;100.00;102070.94;5012781;28;20030;-73
2023/01/04 02:55:51;;;;;;;22.70;10.40;;;;;;;8.04;100.00;102064.41;5013571;28;20419;-73
2023/01/04 02:58:48;;;;;;;24.40;11.00;;;;;;;8.01;100.00;102071.56;5043814;28;20150;-72
2023/01/04 03:08:36;;;;;;;18.10;10.20;;;;;;;7.83;100.00;102065.69;5016488;28;20510;-73
2023/01/04 03:12:30;;;;;;;19.33;11.68;;;;;;;7.87;100.00;102067.19;5011012;28;20026;-73
2023/01/04 03:14:00;;;;;;;21.25;10.52;;;;;;;7.77;100.00;102066.84;5010449;28;20042;-72
2023/01/04 03:16:27;;;;;;;19.35;10.25;;;;;;;7.76;100.00;102066.94;5011638;28;20038;-72
2023/01/04 03:18:56;;;;;;;25.90;11.63;;;;;;;7.78;100.00;102062.50;5018616;28;20034;-72
2023/01/04 03:21:26;;;;;;;47.30;15.57;;;;;;;7.83;100.00;102061.31;5012358;28;20489;-72
2023/01/04 03:35:45;;;;;;;120.22;23.33;;;;;;;8.20;100.00;102074.75;5012202;28;20056;-72
2023/01/04 03:50:09;;;;;;;180.75;23.10;;;;;;;8.42;100.00;102062.22;5013295;28;20041;-72
2023/01/04 03:52:35;;;;;;;211.35;24.45;;;;;;;8.47;100.00;102064.53;5013387;28;20034;-72
2023/01/04 03:55:04;;;;;;;174.80;23.05;;;;;;;8.48;100.00;102066.22;5012048;28;20029;-72
2023/01/04 03:57:32;;;;;;;193.27;23.27;;;;;;;8.49;100.00;102062.69;5010821;28;20060;-73
2023/01/04 04:00:15;;;;;;;160.90;23.98;;;;;;;8.49;100.00;102060.09;5031836;28;20042;-72
2023/01/04 04:02:43;;;;;;;95.68;18.25;;;;;;;8.48;100.00;102059.25;5013184;28;20026;-72
2023/01/04 04:10:46;;;;;;;199.93;20.25;;;;;;;8.41;100.00;102067.50;5005675;28;20045;-73
2023/01/04 04:13:13;;;;;;;269.08;22.75;;;;;;;8.35;100.00;102067.84;5011898;28;20045;-72
2023/01/04 04:15:39;;;;;;;243.85;21.63;;;;;;;8.29;100.00;102072.44;5011269;28;20047;-72
2023/01/04 04:18:04;;;;;;;99.20;19.63;;;;;;;8.34;100.00;102071.38;5012634;28;20052;-72
2023/01/04 04:20:30;;;;;;;201.82;21.65;;;;;;;8.36;100.00;102064.34;5012632;28;20124;-72
2023/01/04 04:22:56;;;;;;;101.88;20.13;;;;;;;8.42;100.00;102064.81;5011416;28;20042;-72
2023/01/04 04:25:22;;;;;;;143.60;21.77;;;;;;;8.48;100.00;102068.81;5018673;28;20125;-72
2023/01/04 04:27:47;;;;;;;256.50;25.27;;;;;;;8.50;100.00;102061.75;5010397;28;20442;-72
2023/01/04 04:30:13;;;;;;;179.60;23.65;;;;;;;8.49;100.00;102053.13;5010108;28;20049;-71
2023/01/04 04:32:38;;;;;;;285.58;26.13;;;;;;;8.47;100.00;102060.19;5011921;28;20552;-72
2023/01/04 04:35:04;;;;;;;195.45;25.08;;;;;;;8.47;100.00;102054.97;5011433;28;20045;-72
2023/01/04 04:37:31;;;;;;;184.68;24.00;;;;;;;8.46;100.00;102053.31;5010047;28;20048;-72
2023/01/04 04:39:57;;;;;;;258.92;26.83;;;;;;;8.50;100.00;102061.75;5011118;28;20088;-72
2023/01/04 04:42:23;;;;;;;210.60;24.27;;;;;;;8.49;100.00;102057.47;5009145;28;20044;-72
2023/01/04 04:44:49;;;;;;;156.02;23.75;;;;;;;8.47;100.00;102054.16;5014111;28;20030;-72
2023/01/04 04:47:15;;;;;;;105.18;19.90;;;;;;;8.43;100.00;102053.50;5009141;28;20038;-73
2023/01/04 04:49:40;;;;;;;152.48;21.45;;;;;;;8.44;100.00;102056.94;5007823;28;20029;-72
2023/01/04 04:52:07;;;;;;;82.22;17.50;;;;;;;8.43;100.00;102053.50;5014194;28;20029;-72
2023/01/04 04:54:33;;;;;;;100.68;16.83;;;;;;;8.43;100.00;102052.66;5012396;28;20041;-72
2023/01/04 04:56:59;;;;;;;163.68;22.08;;;;;;;8.43;100.00;102048.28;5010504;28;20102;-72
2023/01/04 04:59:25;;;;;;;151.25;18.88;;;;;;;8.46;100.00;102049.88;5009585;28;20058;-72
2023/01/04 05:01:50;;;;;;;245.52;24.42;;;;;;;8.48;100.00;102058.41;5015107;28;20026;-72
2023/01/04 05:04:18;;;;;;;152.73;19.83;;;;;;;8.42;100.00;102059.63;5007666;28;20041;-72
2023/01/04 05:06:46;;;;;;;114.35;17.33;;;;;;;8.44;100.00;102052.56;5014696;28;20029;-72
2023/01/04 05:09:15;;;;;;;220.60;22.48;;;;;;;8.43;100.00;102055.25;5015891;28;20038;-72
2023/01/04 05:14:27;;;;;;;212.57;21.73;;;;;;;8.39;100.00;102064.16;5008853;28;20107;-72
2023/01/04 05:16:52;;;;;;;180.15;21.08;;;;;;;8.34;100.00;102059.22;5015176;28;20034;-72
2023/01/04 05:19:18;;;;;;;183.02;20.15;;;;;;;8.35;100.00;102057.47;5014399;28;20037;-72
2023/01/04 05:21:44;;;;;;;200.02;20.58;;;;;;;8.31;100.00;102057.63;5019820;28;20128;-73
2023/01/04 05:24:11;;;;;;;227.15;21.13;;;;;;;8.32;100.00;102058.44;5013207;28;20074;-72
2023/01/04 05:26:38;;;;;;;145.18;16.67;;;;;;;8.28;100.00;102052.59;5008185;28;20021;-73
2023/01/04 05:29:04;;;;;;;97.53;14.90;;;;;;;8.30;100.00;102055.94;5010011;28;20060;-73
2023/01/04 05:31:30;;;;;;;248.48;20.90;;;;;;;8.28;100.00;102063.00;5016141;28;20392;-72
2023/01/04 05:33:56;;;;;;;182.65;19.63;;;;;;;8.29;100.00;102056.88;5010240;28;20030;-72
2023/01/04 05:36:22;;;;;;;248.45;22.08;;;;;;;8.26;100.00;102057.06;5008598;28;20495;-72
2023/01/04 05:38:48;;;;;;;195.25;20.60;;;;;;;8.23;100.00;102065.03;5013647;28;20107;-72
2023/01/04 05:43:59;;;;;;;103.53;15.23;;;;;;;8.16;100.00;102070.66;5008329;28;20037;-73
2023/01/04 05:46:25;;;;;;;126.93;20.25;;;;;;;8.09;100.00;102072.78;5009485;28;20052;-73
2023/01/04 05:48:50;;;;;;;138.82;30.40;;;;;;;8.03;100.00;102080.13;5008530;28;20470;-72
2023/01/04 05:51:19;;;;;;;113.45;19.95;;;;;;;7.98;100.00;102070.81;5015404;28;20118;-73
2023/01/04 05:53:45;;;;;;;110.18;17.80;;;;;;;7.94;100.00;102064.13;5015276;28;20466;-72
2023/01/04 05:56:11;;;;;;;162.38;18.90;;;;;;;7.94;100.00;102079.72;5013124;28;20029;-72
2023/01/04 05:58:37;;;;;;;158.23;17.55;;;;;;;7.92;100.00;102072.94;4991228;28;20052;-72
2023/01/04 06:01:03;;;;;;;97.35;16.80;;;;;;;7.95;100.00;102072.75;5014064;28;20070;-73
2023/01/04 06:03:28;;;;;;;148.43;19.30;;;;;;;7.93;100.00;102069.41;5009896;28;20038;-73
2023/01/04 06:05:54;;;;;;;118.07;17.77;;;;;;;7.91;100.00;102068.66;5011024;28;20051;-72
2023/01/04 06:08:19;;;;;;;66.78;16.13;;;;;;;7.94;100.00;102064.13;5012161;28;20037;-72
2023/01/04 06:10:52;;;;;;;93.65;37.05;;;;;;;8.02;100.00;102066.28;5012011;28;20109;-72
2023/01/04 06:13:17;;;;;;;71.55;19.85;;;;;;;8.04;100.00;102069.59;5014368;28;20049;-72
2023/01/04 06:15:43;;;;;;;88.43;25.60;;;;;;;8.10;100.00;102071.84;5004925;28;20030;-72
2023/01/04 06:18:09;;;;;;;95.93;24.10;;;;;;;8.10;100.00;102071.84;5022044;28;20485;-72
2023/01/04 06:20:35;;;;;;;86.53;20.98;;;;;;;8.08;100.00;102072.88;5012559;28;21100;-72
2023/01/04 06:23:01;;;;;;;60.15;16.50;;;;;;;8.09;100.00;102067.59;5020417;28;20081;-72
2023/01/04 06:25:27;;;;;;;78.28;17.52;;;;;;;8.14;100.00;102069.91;5010896;28;20046;-73
2023/01/04 06:27:53;;;;;;;66.22;17.55;;;;;;;8.13;100.00;102063.06;5019711;28;20405;-72
2023/01/04 06:30:18;;;;;;;63.15;16.83;;;;;;;8.12;100.00;102069.16;5016436;28;20034;-72
2023/01/04 06:32:43;;;;;;;68.72;17.55;;;;;;;8.14;100.00;102067.31;5020884;28;20458;-72
2023/01/04 06:35:09;;;;;;;45.63;16.65;;;;;;;8.13;100.00;102058.69;5011050;28;20037;-73
2023/01/04 06:37:34;;;;;;;73.30;17.23;;;;;;;8.13;100.00;102058.69;5009889;28;20041;-73
2023/01/04 06:40:00;;;;;;;40.90;13.43;;;;;;;8.08;100.00;102063.31;5013185;28;20441;-72
2023/01/04 06:42:44;;;;;;;35.58;12.77;;;;;;;8.04;100.00;102061.81;5010621;28;20049;-72
2023/01/04 06:45:10;;;;;;;49.47;14.50;;;;;;;8.02;100.00;102071.50;5010305;28;20155;-72
2023/01/04 06:47:35;;;;;;;60.70;16.00;;;;;;;7.95;100.00;102071.00;5011137;28;20034;-72
2023/01/04 06:50:14;;;;;;;33.90;13.10;;;;;;;7.89;100.00;102073.94;5012712;28;20044;-71
2023/01/04 06:52:40;;;;;;;37.72;13.20;;;;;;;7.83;100.00;102073.47;5012285;28;20044;-72
2023/01/04 06:55:08;;;;;;;31.15;11.90;;;;;;;7.80;100.00;102077.06;5010985;28;20446;-72
2023/01/04 06:57:33;;;;;;;38.80;12.05;;;;;;;7.82;100.00;102076.97;5012617;28;20034;-72
2023/01/04 06:59:59;;;;;;;30.23;11.45;;;;;;;7.75;100.00;102079.09;5015583;28;20037;-72
2023/01/04 07:02:25;;;;;;;35.65;12.13;;;;;;;7.69;100.00;102081.19;5008396;28;20092;-72
2023/01/04 07:04:50;;;;;;;28.80;11.02;;;;;;;7.67;100.00;102083.88;5012354;28;20316;-72
2023/01/04 07:07:16;;;;;;;26.83;11.10;;;;;;;7.64;100.00;102091.81;5008294;28;20037;-72
2023/01/04 07:09:42;;;;;;;36.72;15.75;;;;;;;7.64;100.00;102094.41;5010275;28;20157;-72
2023/01/04 07:12:07;;;;;;;31.55;12.90;;;;;;;7.66;100.00;102085.63;5012167;28;20477;-72
2023/01/04 07:14:33;;;;;;;27.52;12.10;;;;;;;7.71;100.00;102087.13;5008406;28;20056;-72
2023/01/04 07:16:59;;;;;;;38.33;15.23;;;;;;;7.73;100.00;102093.06;5010029;28;20022;-72
2023/01/04 07:19:24;;;;;;;32.63;12.55;;;;;;;7.70;100.00;102088.88;5013052;28;20033;-72
2023/01/04 07:21:50;;;;;;;32.72;13.27;;;;;;;7.80;100.00;102092.63;5019664;28;20052;-72
2023/01/04 07:24:15;;;;;;;36.72;14.00;;;;;;;7.89;100.00;102104.25;5013364;28;20058;-72
2023/01/04 07:26:41;;;;;;;31.08;13.60;;;;;;;7.94;100.00;102099.66;5010765;28;20030;-72
2023/01/04 07:29:18;;;;;;;31.70;14.73;;;;;;;8.02;100.00;102104.41;5012591;28;20041;-72
2023/01/04 07:31:46;;;;;;;36.78;13.95;;;;;;;8.06;100.00;102109.28;5009769;28;20038;-72
2023/01/04 07:34:13;;;;;;;35.08;15.05;;;;;;;8.12;100.00;102102.91;5009765;28;20449;-72
2023/01/04 07:36:39;;;;;;;33.67;16.60;;;;;;;8.16;100.00;102109.59;5009143;28;20036;-72
2023/01/04 07:39:09;;;;;;;42.33;16.75;;;;;;;8.24;100.00;102107.41;5008648;28;20029;-72
2023/01/04 07:41:34;;;;;;;33.35;14.45;;;;;;;8.30;100.00;102107.88;5012041;28;20534;-72
2023/01/04 07:44:00;;;;;;;24.58;12.30;;;;;;;8.38;100.00;102104.88;5008620;28;20025;-72
2023/01/04 07:46:26;;;;;;;17.70;10.88;;;;;;;8.50;100.00;102108.50;5007269;28;20496;-72
2023/01/04 07:48:52;;;;;;;19.55;10.02;;;;;;;8.56;100.00;102101.16;5012654;28;20045;-69
2023/01/04 07:51:17;;;;;;;17.98;8.93;;;;;;;8.57;100.00;102115.81;5010146;28;20096;-71
2023/01/04 07:53:43;;;;;;;17.67;9.60;;;;;;;8.58;100.00;102109.69;5011161;28;20116;-72
2023/01/04 07:56:08;;;;;;;16.05;9.13;;;;;;;8.65;100.00;102110.16;5010301;28;20474;-72
2023/01/04 07:58:34;;;;;;;17.50;9.10;;;;;;;8.63;100.00;102114.63;5018735;28;20144;-71
2023/01/04 08:01:16;;;;;;;17.45;9.77;;;;;;;8.69;100.00;102114.25;5008970;28;20121;-71
2023/01/04 08:03:44;;;;;;;19.65;10.32;;;;;;;8.70;100.00;102115.94;5015260;28;20413;-71
2023/01/04 08:06:11;;;;;;;17.45;10.98;;;;;;;8.73;100.00;102120.09;5010246;28;20038;-71
2023/01/04 08:08:37;;;;;;;19.25;11.23;;;;;;;8.82;100.00;102122.16;5015565;28;20397;-71
2023/01/04 08:11:04;;;;;;;17.00;10.75;;;;;;;8.91;100.00;102114.63;5009393;28;20026;-71
2023/01/04 08:13:30;;;;;;;18.75;11.50;;;;;;;8.87;100.00;102123.56;5013534;28;20402;-71
2023/01/04 08:15:55;;;;;;;18.88;13.52;;;;;;;8.88;100.00;102120.03;5008101;28;20095;-71
2023/01/04 08:18:21;;;;;;;16.52;11.73;;;;;;;8.95;100.00;102117.88;5007118;28;20037;-71
2023/01/04 08:20:47;;;;;;;29.98;19.02;;;;;;;9.04;100.00;102117.31;5016193;28;20037;-72
2023/01/04 08:23:12;;;;;;;26.73;16.70;;;;;;;9.16;100.00;102124.34;5013592;28;20034;-72
2023/01/04 08:25:38;;;;;;;20.38;13.77;;;;;;;9.09;100.00;102111.81;5016226;28;20037;-73
2023/01/04 08:28:03;;;;;;;17.45;10.65;;;;;;;9.02;100.00;102113.13;5014534;28;20109;-72
2023/01/04 08:30:29;;;;;;;12.38;8.98;;;;;;;9.02;100.00;102115.72;5012328;28;20470;-72
2023/01/04 08:32:54;;;;;;;18.55;10.00;;;;;;;9.04;100.00;102119.06;5013332;28;20022;-72
2023/01/04 08:35:20;;;;;;;16.83;12.10;;;;;;;9.09;100.00;102117.84;5006944;28;20045;-72
2023/01/04 08:37:46;;;;;;;9.88;7.13;;;;;;;9.08;100.00;102125.75;5009252;28;20488;-72
2023/01/04 08:40:12;;;;;;;10.30;6.20;;;;;;;9.04;100.00;102119.06;5008997;28;20041;-72
2023/01/04 08:42:37;;;;;;;8.70;5.97;;;;;;;9.10;100.00;102121.28;5008966;28;20535;-73
2023/01/04 08:45:03;;;;;;;11.35;5.88;;;;;;;9.14;100.00;102125.38;5011517;28;20498;-73
2023/01/04 08:47:30;;;;;;;8.23;6.13;;;;;;;9.19;100.00;102120.72;5008242;28;20037;-73
2023/01/04 08:49:56;;;;;;;7.70;5.47;;;;;;;9.21;100.00;102124.06;5008541;28;20040;-72
2023/01/04 08:52:22;;;;;;;8.93;6.65;;;;;;;9.26;100.00;102116.81;5010090;28;20044;-72
2023/01/04 08:54:48;;;;;;;10.32;7.20;;;;;;;9.35;100.00;102118.00;5009512;28;20076;-72
2023/01/04 08:57:14;;;;;;;12.45;8.35;;;;;;;9.45;100.00;102119.09;5009074;28;20219;-73
2023/01/04 08:59:40;;;;;;;10.02;7.53;;;;;;;9.49;100.00;102117.94;5005214;28;20083;-73
2023/01/04 09:02:26;;;;;;;11.13;8.20;;;;;;;9.56;100.00;102109.66;5006655;28;20097;-72
2023/01/04 09:04:58;;;;;;;12.40;8.38;;;;;;;9.64;100.00;102114.38;5005644;28;20090;-72
2023/01/04 09:07:27;;;;;;;9.65;7.75;;;;;;;9.73;100.00;102119.00;5006480;28;20029;-73
2023/01/04 09:09:52;;;;;;;10.55;7.32;;;;;;;9.83;100.00;102121.84;5012758;28;20026;-72
2023/01/04 09:12:18;;;;;;;9.80;7.30;;;;;;;9.92;100.00;102108.22;5006865;28;20474;-73
2023/01/04 09:14:43;;;;;;;11.13;6.85;;;;;;;10.04;100.00;102117.00;5005799;28;20412;-72
2023/01/04 09:17:09;;;;;;;7.15;5.20;;;;;;;10.12;100.00;102114.72;5006827;28;20046;-70
2023/01/04 09:19:34;;;;;;;6.00;5.03;;;;;;;10.10;100.00;102112.22;5004293;28;20535;-73
2023/01/04 09:22:00;;;;;;;6.55;5.05;;;;;;;10.19;100.00;102111.63;5008246;28;20381;-72
2023/01/04 09:24:26;;;;;;;6.45;5.10;;;;;;;10.12;100.00;102105.13;5007373;28;20030;-73
2023/01/04 09:26:51;;;;;;;9.07;6.70;;;;;;;10.29;100.00;102109.25;5004147;28;20147;-72
2023/01/04 09:29:17;;;;;;;10.70;8.05;;;;;;;10.48;100.00;102108.84;5006189;28;20443;-72
2023/01/04 09:31:43;;;;;;;11.45;7.95;;;;;;;10.53;100.00;102112.78;5009533;28;20048;-73
2023/01/04 09:34:10;;;;;;;10.57;6.63;;;;;;;10.55;100.00;102113.53;5008892;28;20052;-73
2023/01/04 09:36:36;;;;;;;9.43;6.88;;;;;;;10.63;100.00;102120.84;5006995;28;20477;-72
2023/01/04 09:39:01;;;;;;;7.90;6.25;;;;;;;10.62;100.00;102108.75;5008143;28;20049;-72
2023/01/04 09:41:29;;;;;;;6.43;5.25;;;;;;;10.58;100.00;102109.88;5010579;28;20137;-72
2023/01/04 09:43:59;;;;;;;5.53;4.55;;;;;;;10.56;100.00;102098.72;5008407;28;20041;-72
2023/01/04 09:46:47;;;;;;;6.38;5.00;;;;;;;10.56;100.00;102099.56;5012178;28;20048;-72
2023/01/04 09:49:38;;;;;;;7.35;4.75;;;;;;;10.49;100.00;102092.25;5008017;28;20038;-72
2023/01/04 09:52:09;;;;;;;7.30;5.45;;;;;;;10.45;100.00;102093.41;5005438;28;20029;-73
2023/01/04 09:54:46;;;;;;;6.10;5.10;;;;;;;10.40;100.00;102090.31;5006456;28;20022;-72
2023/01/04 09:57:32;;;;;;;7.85;6.28;;;;;;;10.38;100.00;102086.97;5005135;28;20045;-72
2023/01/04 10:00:23;;;;;;;5.95;5.15;;;;;;;10.28;100.00;102092.78;5005063;28;20053;-72
2023/01/04 10:03:16;;;;;;;7.47;5.78;;;;;;;10.23;100.00;102089.66;5004410;28;20084;-73
2023/01/04 10:05:42;;;;;;;6.30;4.57;;;;;;;10.29;100.00;102091.84;5010417;28;20030;-73
2023/01/04 10:08:16;;;;;;;3.65;3.10;;;;;;;10.34;100.00;102088.94;5007183;28;20639;-72
2023/01/04 10:11:03;;;;;;;3.53;2.22;;;;;;;10.22;100.00;102095.81;5016160;28;20034;-72
2023/01/04 10:13:43;;;;;;;2.85;1.73;;;;;;;10.29;100.00;102093.63;5006723;28;20041;-73
2023/01/04 10:16:25;;;;;;;4.13;2.75;;;;;;;10.30;100.00;102093.53;5008682;28;20191;-72
2023/01/04 10:19:09;;;;;;;8.60;3.28;;;;;;;10.38;100.00;102094.78;5010083;28;20110;-72
2023/01/04 10:21:34;;;;;;;7.40;3.10;;;;;;;10.52;100.00;102097.25;5006012;28;20038;-72
2023/01/04 10:24:12;;;;;;;8.48;5.03;;;;;;;10.42;100.00;102096.22;5009918;28;20038;-73
2023/01/04 10:26:45;;;;;;;8.50;6.10;;;;;;;10.49;100.00;102089.66;5011061;28;23594;-73
2023/01/04 10:29:17;;;;;;;6.68;5.38;;;;;;;10.52;100.00;102094.66;5017547;28;20077;-73
2023/01/04 10:31:51;;;;;;;7.07;5.68;;;;;;;10.61;100.00;102094.03;5008315;28;20033;-73
2023/01/04 10:34:39;;;;;;;9.60;5.28;;;;;;;10.70;100.00;102088.19;5009701;28;20042;-73
2023/01/04 10:37:29;;;;;;;6.63;5.07;;;;;;;10.79;100.00;102084.97;5008080;28;20030;-73
2023/01/04 10:39:55;;;;;;;5.55;4.70;;;;;;;10.93;100.00;102073.53;5005564;28;20428;-72
2023/01/04 10:42:32;;;;;;;6.85;5.45;;;;;;;10.94;100.00;102070.81;5011649;28;20470;-72
2023/01/04 10:44:57;;;;;;;5.20;4.32;;;;;;;10.95;100.00;102067.28;5012280;28;20040;-72
2023/01/04 10:47:41;;;;;;;6.72;4.47;;;;;;;10.96;100.00;102055.06;5016325;28;20046;-72
2023/01/04 10:50:33;;;;;;;5.07;4.10;;;;;;;11.09;100.00;102052.44;5009436;28;20548;-73
2023/01/04 10:53:12;;;;;;;6.43;4.47;;;;;;;11.23;100.00;102052.28;4999403;28;20370;-73
2023/01/04 10:55:37;;;;;;;4.97;4.00;;;;;;;11.37;100.00;102048.66;5011132;28;22706;-73
2023/01/04 10:58:17;;;;;;;5.68;3.80;;;;;;;11.47;100.00;102052.28;5016011;28;20140;-73
2023/01/04 11:00:49;;;;;;;8.52;4.18;;;;;;;11.52;100.00;102043.16;5012182;28;20026;-72
2023/01/04 11:03:26;;;;;;;14.65;8.70;;;;;;;11.47;100.00;102044.44;5016483;28;20437;-73
2023/01/04 11:06:13;;;;;;;8.40;5.15;;;;;;;11.45;100.00;102039.34;5016567;28;20155;-73
2023/01/04 11:08:48;;;;;;;5.32;3.03;;;;;;;11.48;100.00;102036.50;5018676;28;20385;-73
2023/01/04 11:11:23;;;;;;;5.43;2.70;;;;;;;11.52;100.00;102043.16;5008956;28;20103;-73
2023/01/04 11:13:49;;;;;;;5.28;1.80;;;;;;;11.56;100.00;102028.94;5005185;28;20026;-74
2023/01/04 11:16:15;;;;;;;2.30;1.63;;;;;;;11.68;100.00;102026.38;5014994;28;20112;-73
2023/01/04 11:18:43;;;;;;;3.10;1.80;;;;;;;11.72;100.00;102028.66;5011541;28;20041;-73
2023/01/04 11:21:13;;;;;;;10.27;1.75;;;;;;;11.73;100.00;102024.25;5012510;28;20117;-74
2023/01/04 11:23:39;;;;;;;2.08;1.30;;;;;;;11.79;100.00;102018.63;5009434;28;20042;-74
2023/01/04 11:26:29;;;;;;;2.25;1.58;;;;;;;11.82;100.00;102013.97;5010355;28;20469;-73
2023/01/04 11:29:03;;;;;;;4.18;1.38;;;;;;;11.85;100.00;102007.69;5010311;28;20037;-73
2023/01/04 11:31:48;;;;;;;4.80;1.70;;;;;;;11.85;100.00;102008.50;5010613;28;20104;-74
2023/01/04 11:34:13;;;;;;;4.55;1.40;;;;;;;11.86;100.00;102009.34;5013392;28;20512;-73
2023/01/04 11:36:42;;;;;;;1.48;0.73;;;;;;;11.86;100.00;102001.50;5010428;28;20132;-73
2023/01/04 11:39:34;;;;;;;1.75;0.60;;;;;;;11.84;100.00;101992.97;5004934;28;20041;-73
2023/01/04 11:42:03;;;;;;;1.30;0.50;;;;;;;11.90;100.00;101995.94;5010443;28;20099;-73
2023/01/04 11:44:32;;;;;;;5.18;0.60;;;;;;;11.93;100.00;101990.50;5008436;28;20037;-73
2023/01/04 11:47:20;;;;;;;0.77;0.50;;;;;;;11.88;100.00;101989.16;5008804;28;20034;-73
2023/01/04 11:49:47;;;;;;;1.02;0.40;;;;;;;11.92;100.00;101988.81;5019270;28;20137;-74
2023/01/04 11:52:34;;;;;;;0.90;0.40;;;;;;;11.98;100.00;101994.53;5026292;28;20017;-73
2023/01/04 11:55:23;;;;;;;1.88;0.90;;;;;;;11.99;100.00;101994.41;5014075;28;20482;-72
2023/01/04 11:58:06;;;;;;;1.50;0.60;;;;;;;11.99;100.00;101989.19;5005781;28;20046;-73
2023/01/04 12:00:31;;;;;;;1.92;0.77;;;;;;;12.03;100.00;101984.56;5006457;28;20036;-73
2023/01/04 12:03:12;;;;;;;1.67;0.52;;;;;;;12.03;100.00;101980.19;5013555;28;20018;-73
2023/01/04 12:05:37;;;;;;;1.60;0.75;;;;;;;12.09;100.00;101974.50;5016491;28;20044;-73
2023/01/04 12:08:03;;;;;;;1.58;0.82;;;;;;;12.11;100.00;101966.53;5012881;28;20033;-73
2023/01/04 12:10:29;;;;;;;2.28;1.00;;;;;;;12.12;100.00;101968.19;5010970;28;20083;-73
2023/01/04 12:12:58;;;;;;;1.52;0.90;;;;;;;12.14;100.00;101961.06;5016306;28;20032;-74